Time;durP1;ratioP1;P1;durP2;ratioP2;P2;SDS_P1;SDS_P2;PMS_P1;PMS_P2;Temp;Humidity;BMP_temperature;BMP_pressure;BME280_temperature;BME280_humidity;BME280_pressure;Samples;Min_cycle;Max_cycle;Signal;HPM_P1;HPM_P2
2021/06/12 00:01:12;;;;;;;11.30;5.80;;;18.80;99.90;;;;;;3593304;39;20020;-61
2021/06/12 00:03:38;;;;;;;11.90;6.63;;;19.00;99.90;;;;;;3596127;39;20129;-61
2021/06/12 00:06:05;;;;;;;11.77;7.53;;;18.90;99.90;;;;;;3595038;39;20027;-61
2021/06/12 00:08:31;;;;;;;18.17;10.30;;;18.80;99.90;;;;;;3591765;39;20035;-61
2021/06/12 00:10:57;;;;;;;16.33;9.50;;;18.90;99.90;;;;;;3592018;39;20650;-61
2021/06/12 00:13:23;;;;;;;18.15;12.18;;;18.90;99.90;;;;;;3592039;39;20294;-61
2021/06/12 00:15:49;;;;;;;13.15;10.43;;;18.90;99.90;;;;;;3593005;39;20036;-61
2021/06/12 00:18:15;;;;;;;17.40;11.38;;;17.50;99.90;;;;;;3594251;39;20072;-61
2021/06/12 00:20:41;;;;;;;25.13;13.02;;;19.00;99.90;;;;;;3595354;39;20117;-61
2021/06/12 00:23:07;;;;;;;15.85;11.40;;;18.90;99.90;;;;;;3596822;39;20083;-61
2021/06/12 00:25:34;;;;;;;14.35;10.38;;;19.00;99.90;;;;;;3596632;39;20105;-61
2021/06/12 00:28:01;;;;;;;14.40;10.13;;;18.90;99.90;;;;;;3599621;39;20032;-61
2021/06/12 00:30:28;;;;;;;14.48;10.13;;;19.00;99.90;;;;;;3600820;39;20023;-63
2021/06/12 00:32:54;;;;;;;15.75;10.32;;;19.00;99.90;;;;;;3601062;39;20027;-61
2021/06/12 00:35:20;;;;;;;18.20;9.93;;;19.00;99.90;;;;;;3599990;39;20083;-61
2021/06/12 00:37:46;;;;;;;14.27;9.18;;;19.00;99.90;;;;;;3598075;39;20193;-61
2021/06/12 00:40:14;;;;;;;14.38;8.77;;;19.70;99.90;;;;;;3595131;39;20603;-61
2021/06/12 00:42:41;;;;;;;13.50;8.90;;;18.90;99.90;;;;;;3593507;39;20113;-61
2021/06/12 00:45:13;;;;;;;13.60;9.05;;;18.90;99.90;;;;;;3593783;39;20097;-61
2021/06/12 00:47:39;;;;;;;11.27;8.52;;;18.90;99.90;;;;;;3591351;39;20032;-61
2021/06/12 00:50:07;;;;;;;10.55;8.85;;;18.80;99.90;;;;;;3590506;39;20804;-61
2021/06/12 00:52:33;;;;;;;13.15;9.23;;;18.80;99.90;;;;;;3592002;39;20131;-61
2021/06/12 00:54:58;;;;;;;16.83;9.63;;;19.20;99.90;;;;;;3593236;39;20033;-61
2021/06/12 00:57:24;;;;;;;15.75;9.77;;;18.40;99.90;;;;;;3585296;39;20039;-61
2021/06/12 00:59:50;;;;;;;15.55;9.13;;;18.70;99.90;;;;;;3595756;39;20034;-61
2021/06/12 01:02:16;;;;;;;16.85;9.70;;;18.70;99.90;;;;;;3593112;39;20722;-61
2021/06/12 01:04:42;;;;;;;14.75;8.95;;;18.70;99.90;;;;;;3593116;39;20051;-61
2021/06/12 01:07:07;;;;;;;12.38;9.07;;;18.80;99.90;;;;;;3590447;39;20078;-61
2021/06/12 01:09:33;;;;;;;11.07;8.07;;;18.80;99.90;;;;;;3591744;39;20294;-61
2021/06/12 01:12:24;;;;;;;15.32;9.38;;;18.90;99.90;;;;;;3593134;39;20076;-61
2021/06/12 01:14:54;;;;;;;13.05;8.73;;;19.00;99.90;;;;;;3597654;39;20076;-61
2021/06/12 01:17:37;;;;;;;12.27;8.13;;;19.20;99.90;;;;;;3595485;39;20020;-61
2021/06/12 01:20:35;;;;;;;16.15;9.48;;;18.90;99.90;;;;;;3593839;39;20068;-61
2021/06/12 01:23:09;;;;;;;12.32;9.02;;;18.90;99.90;;;;;;3587893;39;20089;-61
2021/06/12 01:26:06;;;;;;;10.90;9.27;;;19.00;99.90;;;;;;3592318;39;20032;-61
2021/06/12 01:28:58;;;;;;;11.80;9.02;;;19.00;99.90;;;;;;3591929;39;20110;-61
2021/06/12 01:31:25;;;;;;;13.82;9.05;;;19.10;99.90;;;;;;3593554;39;20549;-61
2021/06/12 01:33:52;;;;;;;14.52;9.23;;;19.20;99.90;;;;;;3594931;39;20049;-61
2021/06/12 01:36:18;;;;;;;17.23;8.70;;;19.30;99.90;;;;;;3596567;39;20024;-66
2021/06/12 01:38:48;;;;;;;12.73;8.60;;;19.20;99.90;;;;;;3597513;39;20130;-66
2021/06/12 01:41:16;;;;;;;12.73;8.60;;;19.30;99.90;;;;;;3598594;39;20035;-66
2021/06/12 01:43:43;;;;;;;17.65;8.35;;;19.30;99.90;;;;;;3600563;39;20486;-66
2021/06/12 01:46:11;;;;;;;10.43;8.30;;;19.30;99.90;;;;;;3596209;39;20036;-66
2021/06/12 01:48:43;;;;;;;10.88;8.40;;;19.30;99.90;;;;;;3593149;39;20036;-66
2021/06/12 01:51:10;;;;;;;11.15;7.80;;;19.40;99.90;;;;;;3597256;39;20145;-66
2021/06/12 01:53:38;;;;;;;16.58;8.73;;;19.40;99.90;;;;;;3595638;39;20504;-67
2021/06/12 01:56:06;;;;;;;10.48;8.27;;;19.40;99.90;;;;;;3595019;39;20472;-66
2021/06/12 01:58:33;;;;;;;10.75;8.35;;;19.50;99.90;;;;;;3597820;39;20038;-67
2021/06/12 02:01:01;;;;;;;9.73;7.97;;;19.40;99.90;;;;;;3592279;39;20081;-66
2021/06/12 02:03:28;;;;;;;16.10;8.50;;;19.40;99.90;;;;;;3594346;39;20146;-66
2021/06/12 02:05:54;;;;;;;16.48;8.60;;;19.30;99.90;;;;;;3591274;39;20035;-66
2021/06/12 02:08:21;;;;;;;10.07;8.13;;;19.40;99.90;;;;;;3595778;39;20117;-66
2021/06/12 02:10:49;;;;;;;12.57;8.90;;;19.40;99.90;;;;;;3594377;39;20036;-66
2021/06/12 02:13:20;;;;;;;13.10;9.18;;;19.40;99.90;;;;;;3595180;39;20020;-66
2021/06/12 02:15:50;;;;;;;13.77;7.78;;;19.70;99.90;;;;;;3592399;39;20036;-66
2021/06/12 02:18:18;;;;;;;9.93;7.75;;;19.30;99.90;;;;;;3594270;39;20039;-66
2021/06/12 02:20:47;;;;;;;11.25;8.57;;;19.30;99.90;;;;;;3596114;39;20132;-66
2021/06/12 02:23:13;;;;;;;9.75;7.80;;;19.20;99.90;;;;;;3597527;39;20020;-66
2021/06/12 02:25:39;;;;;;;12.57;8.40;;;19.30;99.90;;;;;;3595165;39;20024;-66
2021/06/12 02:28:10;;;;;;;10.07;7.45;;;19.20;99.90;;;;;;3595360;39;20487;-67
2021/06/12 02:30:42;;;;;;;11.98;7.93;;;19.20;99.90;;;;;;3592931;39;20396;-66
2021/06/12 02:33:12;;;;;;;13.98;8.27;;;19.20;99.90;;;;;;3597691;39;20027;-66
2021/06/12 02:35:38;;;;;;;11.95;8.20;;;19.10;99.90;;;;;;3596252;39;20075;-66
2021/06/12 02:38:03;;;;;;;12.82;7.70;;;19.10;99.90;;;;;;3594567;39;20050;-66
2021/06/12 02:40:29;;;;;;;9.93;8.27;;;19.00;99.90;;;;;;3589873;39;20036;-67
2021/06/12 02:42:55;;;;;;;15.60;8.48;;;19.00;99.90;;;;;;3592512;39;20373;-67
2021/06/12 02:45:23;;;;;;;12.75;8.15;;;18.90;99.90;;;;;;3593438;39;20041;-66
2021/06/12 02:47:52;;;;;;;11.23;8.00;;;18.80;99.90;;;;;;3594519;39;20132;-67
2021/06/12 02:50:20;;;;;;;13.63;9.25;;;18.90;99.90;;;;;;3594564;39;20132;-66
2021/06/12 02:52:49;;;;;;;11.07;8.50;;;18.70;99.90;;;;;;3595167;39;20043;-66
2021/06/12 02:55:15;;;;;;;11.70;8.07;;;18.70;99.90;;;;;;3594897;39;20024;-66
2021/06/12 02:57:45;;;;;;;13.15;8.45;;;18.70;99.90;;;;;;3594115;39;20043;-67
2021/06/12 03:00:12;;;;;;;10.20;7.78;;;18.70;99.90;;;;;;3593091;39;20048;-66
2021/06/12 03:02:41;;;;;;;10.30;7.40;;;18.70;99.90;;;;;;3595863;39;20689;-66
2021/06/12 03:05:11;;;;;;;10.85;8.32;;;18.70;99.90;;;;;;3596028;39;20060;-66
2021/06/12 03:07:38;;;;;;;12.30;7.28;;;18.70;99.90;;;;;;3594186;39;20580;-67
2021/06/12 03:10:05;;;;;;;10.43;7.85;;;18.70;99.90;;;;;;3594012;39;20042;-66
2021/06/12 03:12:32;;;;;;;10.13;7.78;;;18.70;99.90;;;;;;3593240;39;20016;-66
2021/06/12 03:14:59;;;;;;;10.73;6.97;;;18.70;99.90;;;;;;3595051;39;20032;-66
2021/06/12 03:17:26;;;;;;;9.68;7.50;;;18.70;99.90;;;;;;3589963;39;20044;-66
2021/06/12 03:19:53;;;;;;;13.80;8.32;;;18.70;99.90;;;;;;3592691;39;20124;-66
2021/06/12 03:22:20;;;;;;;11.57;6.90;;;18.80;99.90;;;;;;3592410;39;20045;-66
2021/06/12 03:24:46;;;;;;;10.02;7.25;;;19.90;99.90;;;;;;3594908;39;20361;-66
2021/06/12 03:27:12;;;;;;;8.98;6.30;;;18.80;99.90;;;;;;3595705;39;20028;-66
2021/06/12 03:29:40;;;;;;;11.07;6.93;;;18.80;99.90;;;;;;3593332;39;20044;-66
2021/06/12 03:32:06;;;;;;;12.60;7.30;;;18.80;99.90;;;;;;3593527;39;20036;-65
2021/06/12 03:34:32;;;;;;;9.63;7.40;;;18.80;99.90;;;;;;3591287;39;20031;-67
2021/06/12 03:37:00;;;;;;;9.70;6.68;;;18.90;99.90;;;;;;3594953;39;20035;-65
2021/06/12 03:39:26;;;;;;;10.45;6.45;;;18.90;99.90;;;;;;3594361;39;20056;-66
2021/06/12 03:41:53;;;;;;;9.32;6.53;;;18.90;99.90;;;;;;3593731;39;20103;-67
2021/06/12 03:44:20;;;;;;;7.63;6.05;;;18.90;99.90;;;;;;3595838;39;20032;-67
2021/06/12 03:46:48;;;;;;;8.25;6.57;;;19.00;99.90;;;;;;3596089;39;20035;-66
2021/06/12 03:49:17;;;;;;;8.93;6.20;;;19.00;99.90;;;;;;3595413;39;20039;-66
2021/06/12 03:51:43;;;;;;;9.82;6.65;;;19.10;99.90;;;;;;3591357;39;20698;-67
2021/06/12 03:54:09;;;;;;;9.52;6.88;;;19.00;99.90;;;;;;3594563;39;20075;-67
2021/06/12 03:56:38;;;;;;;7.60;5.43;;;19.00;99.90;;;;;;3588072;39;20028;-68
2021/06/12 03:59:06;;;;;;;7.85;5.88;;;19.10;99.90;;;;;;3589643;39;20037;-68
2021/06/12 04:01:32;;;;;;;6.78;5.93;;;20.10;99.90;;;;;;3593380;39;20801;-67
2021/06/12 04:03:58;;;;;;;8.15;5.90;;;19.00;99.90;;;;;;3594112;39;20807;-61
2021/06/12 04:06:24;;;;;;;7.75;5.97;;;19.80;99.90;;;;;;3593285;39;20046;-61
2021/06/12 04:08:50;;;;;;;11.45;6.15;;;19.80;99.90;;;;;;3590257;39;20023;-61
2021/06/12 04:11:16;;;;;;;9.52;5.88;;;19.90;99.90;;;;;;3590278;39;20104;-61
2021/06/12 04:13:42;;;;;;;9.65;6.18;;;19.40;99.90;;;;;;3588860;39;20028;-61
2021/06/12 04:16:09;;;;;;;6.53;5.82;;;19.50;99.90;;;;;;3585903;39;20020;-61
2021/06/12 04:18:36;;;;;;;6.60;5.45;;;19.60;99.90;;;;;;3591869;39;20031;-62
2021/06/12 04:21:03;;;;;;;9.48;6.38;;;21.00;99.90;;;;;;3593997;39;20417;-62
2021/06/12 04:23:29;;;;;;;8.95;5.65;;;19.80;99.90;;;;;;3593775;39;20599;-61
2021/06/12 04:25:55;;;;;;;9.18;5.53;;;20.20;99.90;;;;;;3596381;39;20028;-61
2021/06/12 04:28:21;;;;;;;8.32;5.80;;;19.90;99.90;;;;;;3595993;39;20038;-61
2021/06/12 04:30:47;;;;;;;7.18;6.30;;;19.90;99.90;;;;;;3597945;39;20028;-61
2021/06/12 04:33:13;;;;;;;7.47;6.10;;;19.90;99.90;;;;;;3590633;39;20305;-61
2021/06/12 04:35:38;;;;;;;13.65;5.30;;;21.10;99.90;;;;;;3590230;39;20037;-62
2021/06/12 04:38:04;;;;;;;10.45;5.05;;;19.90;99.90;;;;;;3592994;39;20353;-61
2021/06/12 04:40:32;;;;;;;5.80;4.85;;;20.20;99.90;;;;;;3594637;39;20027;-61
2021/06/12 04:42:58;;;;;;;6.88;5.60;;;20.20;99.90;;;;;;3595064;39;20082;-61
2021/06/12 04:45:24;;;;;;;7.75;4.95;;;20.20;99.90;;;;;;3597307;39;20446;-61
2021/06/12 04:47:50;;;;;;;7.60;5.50;;;20.30;99.90;;;;;;3591188;39;20024;-61
2021/06/12 04:50:16;;;;;;;6.13;5.00;;;20.40;99.90;;;;;;3587474;39;20051;-61
2021/06/12 04:52:43;;;;;;;7.32;5.03;;;20.50;99.90;;;;;;3598871;39;20028;-61
2021/06/12 04:55:09;;;;;;;10.68;4.22;;;20.50;99.90;;;;;;3594149;39;20625;-61
2021/06/12 04:57:36;;;;;;;6.57;4.55;;;20.50;99.90;;;;;;3594362;39;20067;-61
2021/06/12 05:00:11;;;;;;;4.18;3.78;;;20.60;99.90;;;;;;3594329;39;20070;-61
2021/06/12 05:02:39;;;;;;;6.57;4.40;;;20.80;99.90;;;;;;3596522;39;20039;-61
2021/06/12 05:05:06;;;;;;;7.45;4.43;;;20.80;99.90;;;;;;3591885;39;20028;-61
2021/06/12 05:07:32;;;;;;;5.35;4.28;;;20.90;99.90;;;;;;3593372;39;20117;-61
2021/06/12 05:09:58;;;;;;;6.68;4.13;;;21.00;99.90;;;;;;3591309;39;20040;-61
2021/06/12 05:12:24;;;;;;;4.38;3.97;;;21.00;99.90;;;;;;3598365;39;20012;-61
2021/06/12 05:14:53;;;;;;;10.05;3.72;;;21.10;99.90;;;;;;3597590;39;20132;-61
2021/06/12 05:17:19;;;;;;;5.93;3.70;;;21.10;99.90;;;;;;3595649;39;20035;-61
2021/06/12 05:19:45;;;;;;;6.43;3.70;;;22.00;99.90;;;;;;3596178;39;20045;-61
2021/06/12 05:22:11;;;;;;;5.68;3.47;;;21.10;99.90;;;;;;3598921;39;20760;-61
2021/06/12 05:24:37;;;;;;;8.05;4.40;;;20.80;99.90;;;;;;3593745;39;20044;-62
2021/06/12 05:27:04;;;;;;;6.63;4.00;;;21.00;99.90;;;;;;3600129;39;20028;-62
2021/06/12 05:29:30;;;;;;;4.63;4.10;;;21.00;99.90;;;;;;3599505;39;20047;-62
2021/06/12 05:31:56;;;;;;;6.75;3.85;;;20.90;99.90;;;;;;3593928;39;20064;-61
2021/06/12 05:34:21;;;;;;;13.55;4.53;;;20.90;99.90;;;;;;3594328;39;20140;-61
2021/06/12 05:36:47;;;;;;;7.22;4.43;;;20.80;99.90;;;;;;3594241;39;20406;-61
2021/06/12 05:39:13;;;;;;;7.10;3.83;;;20.70;99.90;;;;;;3593335;39;20036;-61
2021/06/12 05:41:39;;;;;;;8.80;4.22;;;20.80;99.90;;;;;;3591159;39;20028;-61
2021/06/12 05:44:06;;;;;;;4.78;3.55;;;20.80;99.90;;;;;;3597418;39;20116;-61
2021/06/12 05:46:32;;;;;;;16.15;7.38;;;20.70;99.90;;;;;;3595129;39;20039;-61
2021/06/12 05:48:59;;;;;;;7.97;4.95;;;20.70;99.90;;;;;;3592307;39;20024;-61
2021/06/12 05:51:26;;;;;;;6.88;4.32;;;20.50;99.90;;;;;;3592429;39;20676;-61
2021/06/12 05:53:52;;;;;;;6.93;4.30;;;20.60;99.90;;;;;;3592884;39;20133;-61
2021/06/12 05:56:18;;;;;;;6.50;4.43;;;20.50;99.90;;;;;;3597454;39;20019;-61
2021/06/12 05:58:44;;;;;;;6.65;5.03;;;20.50;99.90;;;;;;3595380;39;20035;-61
2021/06/12 06:01:11;;;;;;;7.15;4.50;;;20.40;99.90;;;;;;3595973;39;20038;-61
2021/06/12 06:03:37;;;;;;;12.38;8.88;;;20.40;99.90;;;;;;3595786;39;20083;-61
2021/06/12 06:06:04;;;;;;;7.90;5.03;;;20.50;99.90;;;;;;3596893;39;20048;-61
2021/06/12 06:08:30;;;;;;;8.20;4.43;;;20.40;99.90;;;;;;3596243;39;20040;-61
2021/06/12 06:10:56;;;;;;;7.88;4.13;;;20.50;99.90;;;;;;3596771;39;20551;-61
2021/06/12 06:13:22;;;;;;;6.97;4.47;;;20.50;99.90;;;;;;3595677;39;20044;-61
2021/06/12 06:15:48;;;;;;;9.70;4.68;;;20.90;99.90;;;;;;3594181;39;20024;-61
2021/06/12 06:18:15;;;;;;;6.88;4.60;;;20.50;99.90;;;;;;3595448;39;20028;-62
2021/06/12 06:20:42;;;;;;;7.78;4.90;;;20.50;99.90;;;;;;3594322;39;20039;-61
2021/06/12 06:23:07;;;;;;;8.52;4.28;;;20.40;99.90;;;;;;3595745;39;20054;-61
2021/06/12 06:25:33;;;;;;;9.57;5.13;;;20.50;99.90;;;;;;3595547;39;20044;-61
2021/06/12 06:27:58;;;;;;;6.55;4.28;;;20.60;99.90;;;;;;3596351;39;20039;-61
2021/06/12 06:30:24;;;;;;;7.60;4.90;;;20.70;99.90;;;;;;3594664;39;20040;-61
2021/06/12 06:32:50;;;;;;;9.35;5.38;;;20.90;99.90;;;;;;3596599;39;20031;-61
2021/06/12 06:35:16;;;;;;;10.25;5.07;;;21.00;99.90;;;;;;3583249;40;20081;-61
2021/06/12 06:37:43;;;;;;;11.70;5.03;;;21.00;99.90;;;;;;3589379;40;20034;-61
2021/06/12 06:40:09;;;;;;;8.60;4.90;;;21.20;99.90;;;;;;3595573;39;20040;-61
2021/06/12 06:42:35;;;;;;;12.90;5.38;;;21.50;99.90;;;;;;3594646;39;20132;-61
2021/06/12 06:45:01;;;;;;;18.55;6.40;;;21.50;99.90;;;;;;3595629;39;20048;-61
2021/06/12 06:47:26;;;;;;;13.80;6.57;;;21.60;99.90;;;;;;3594695;39;20024;-63
2021/06/12 06:49:52;;;;;;;19.38;8.13;;;21.60;99.90;;;;;;3593404;39;20293;-61
2021/06/12 06:52:18;;;;;;;16.05;7.05;;;21.60;99.90;;;;;;3594241;39;20076;-61
2021/06/12 06:54:44;;;;;;;15.68;6.80;;;21.70;99.90;;;;;;3595219;39;20031;-61
2021/06/12 06:57:09;;;;;;;16.85;7.00;;;21.60;99.90;;;;;;3594606;39;20032;-61
2021/06/12 06:59:35;;;;;;;13.43;6.50;;;21.70;99.90;;;;;;3595407;39;20071;-61
2021/06/12 07:02:01;;;;;;;10.27;6.32;;;22.10;99.90;;;;;;3594127;39;20030;-61
2021/06/12 07:04:27;;;;;;;12.18;7.28;;;21.60;99.90;;;;;;3593018;39;20069;-62
2021/06/12 07:06:52;;;;;;;11.18;6.70;;;21.60;99.90;;;;;;3595251;39;20640;-61
2021/06/12 07:09:18;;;;;;;17.23;7.53;;;21.70;99.90;;;;;;3596612;39;20040;-61
2021/06/12 07:11:44;;;;;;;18.17;7.53;;;21.70;99.90;;;;;;3592536;39;20028;-61
2021/06/12 07:14:10;;;;;;;12.88;6.80;;;21.70;99.90;;;;;;3595019;39;20046;-61
2021/06/12 07:16:36;;;;;;;18.30;8.77;;;22.00;99.90;;;;;;3593752;39;20039;-62
2021/06/12 07:19:01;;;;;;;15.02;9.43;;;22.00;99.90;;;;;;3592291;39;20047;-61
2021/06/12 07:21:27;;;;;;;21.05;9.02;;;22.10;99.90;;;;;;3598110;39;20028;-61
2021/06/12 07:23:53;;;;;;;21.80;8.75;;;22.40;99.90;;;;;;3599120;39;20047;-61
2021/06/12 07:26:18;;;;;;;11.68;7.13;;;22.60;99.90;;;;;;3598189;39;20020;-62
2021/06/12 07:28:44;;;;;;;12.70;8.07;;;22.60;99.90;;;;;;3594651;39;20511;-61
2021/06/12 07:31:10;;;;;;;13.25;8.93;;;22.40;99.90;;;;;;3584245;39;20036;-61
2021/06/12 07:33:36;;;;;;;17.58;8.20;;;22.30;99.90;;;;;;3595275;39;20452;-61
2021/06/12 07:36:02;;;;;;;17.08;8.93;;;22.20;99.90;;;;;;3595604;39;20028;-67
2021/06/12 07:38:29;;;;;;;12.88;8.15;;;22.20;99.90;;;;;;3595111;39;20039;-67
2021/06/12 07:40:55;;;;;;;12.88;8.13;;;22.10;99.90;;;;;;3598124;39;20036;-67
2021/06/12 07:43:21;;;;;;;14.27;7.95;;;22.10;99.90;;;;;;3598852;39;20408;-67
2021/06/12 07:45:47;;;;;;;17.58;7.70;;;22.30;99.90;;;;;;3585684;39;20020;-67
2021/06/12 07:48:13;;;;;;;16.55;9.07;;;22.30;99.90;;;;;;3596956;39;20032;-67
2021/06/12 07:50:39;;;;;;;19.38;9.18;;;22.50;99.90;;;;;;3593891;39;20040;-67
2021/06/12 07:53:04;;;;;;;16.20;8.43;;;22.60;99.90;;;;;;3595723;39;20488;-67
2021/06/12 07:55:30;;;;;;;16.40;8.80;;;22.60;99.90;;;;;;3593827;39;20421;-67
2021/06/12 07:57:58;;;;;;;17.00;8.50;;;22.50;99.90;;;;;;3594170;39;20031;-66
2021/06/12 08:00:24;;;;;;;14.25;8.70;;;22.40;99.90;;;;;;3596372;39;20141;-67
2021/06/12 08:02:50;;;;;;;17.83;11.80;;;22.40;99.90;;;;;;3597235;39;20105;-67
2021/06/12 08:05:16;;;;;;;15.48;9.52;;;22.40;99.90;;;;;;3593047;39;20051;-67
2021/06/12 08:07:41;;;;;;;17.05;10.00;;;22.40;99.90;;;;;;3595556;39;20445;-66
2021/06/12 08:10:07;;;;;;;18.05;11.25;;;22.40;99.90;;;;;;3591626;39;20141;-67
2021/06/12 08:12:33;;;;;;;21.67;12.90;;;22.10;99.90;;;;;;3594738;39;20036;-67
2021/06/12 08:14:59;;;;;;;20.33;12.18;;;22.10;99.90;;;;;;3595638;39;20432;-67
2021/06/12 08:17:25;;;;;;;20.75;11.32;;;22.10;99.90;;;;;;3595917;39;20861;-68
2021/06/12 08:19:51;;;;;;;20.90;12.15;;;22.20;99.90;;;;;;3593504;39;20119;-67
2021/06/12 08:22:17;;;;;;;19.75;12.73;;;22.30;99.90;;;;;;3592442;39;20040;-67
2021/06/12 08:24:43;;;;;;;19.13;12.00;;;22.30;99.90;;;;;;3594402;39;20727;-66
2021/06/12 08:27:09;;;;;;;18.67;12.32;;;22.40;99.90;;;;;;3592156;39;20032;-67
2021/06/12 08:29:35;;;;;;;23.30;12.30;;;22.60;99.90;;;;;;3594504;39;20042;-68
2021/06/12 08:32:01;;;;;;;21.10;12.98;;;22.70;99.90;;;;;;3595583;39;20023;-67
2021/06/12 08:34:26;;;;;;;20.42;11.50;;;22.70;99.90;;;;;;3596740;39;20128;-67
2021/06/12 08:36:52;;;;;;;20.98;12.45;;;22.80;99.90;;;;;;3591442;39;20020;-67
2021/06/12 08:39:18;;;;;;;18.17;10.23;;;23.00;99.90;;;;;;3598623;39;20116;-67
2021/06/12 08:41:43;;;;;;;17.15;10.82;;;23.00;99.90;;;;;;3595035;39;20051;-66
2021/06/12 08:44:10;;;;;;;14.82;10.43;;;;;;;;;;3600307;39;20128;-67
2021/06/12 08:46:38;;;;;;;24.95;11.30;;;22.90;99.90;;;;;;3594369;39;20109;-66
2021/06/12 08:49:04;;;;;;;17.25;10.07;;;22.80;99.90;;;;;;3598278;39;20024;-67
2021/06/12 08:51:30;;;;;;;20.65;11.10;;;22.90;99.90;;;;;;3594167;39;20019;-66
2021/06/12 08:53:55;;;;;;;16.40;9.18;;;23.10;99.90;;;;;;3593580;39;20036;-67
2021/06/12 08:56:21;;;;;;;13.48;7.22;;;23.30;99.90;;;;;;3593790;39;20100;-67
2021/06/12 08:58:48;;;;;;;16.50;10.18;;;23.10;99.90;;;;;;3594539;39;20341;-67
2021/06/12 09:01:14;;;;;;;17.20;9.10;;;23.40;99.90;;;;;;3594977;39;20109;-67
2021/06/12 09:03:45;;;;;;;22.77;10.38;;;23.40;99.90;;;;;;3597317;39;20023;-66
2021/06/12 09:06:12;;;;;;;31.65;15.60;;;23.00;99.90;;;;;;3595083;39;20024;-67
2021/06/12 09:08:40;;;;;;;15.75;9.90;;;22.80;99.90;;;;;;3595458;39;20421;-67
2021/06/12 09:11:06;;;;;;;16.60;10.15;;;22.30;99.90;;;;;;3593826;39;20498;-67
2021/06/12 09:13:45;;;;;;;13.98;8.35;;;22.80;99.90;;;;;;3595331;39;20067;-67
2021/06/12 09:16:24;;;;;;;20.38;9.95;;;22.00;99.90;;;;;;3594973;39;20121;-67
2021/06/12 09:18:51;;;;;;;16.15;10.02;;;21.60;99.90;;;;;;3595203;39;20028;-67
2021/06/12 09:21:29;;;;;;;19.33;10.85;;;21.20;99.90;;;;;;3594432;39;20027;-67
2021/06/12 09:23:58;;;;;;;14.32;8.40;;;20.70;99.90;;;;;;3591782;39;20414;-67
2021/06/12 09:26:44;;;;;;;16.23;9.80;;;21.00;99.90;;;;;;3594357;39;20031;-67
2021/06/12 09:29:12;;;;;;;14.48;9.82;;;;;;;;;;3591517;39;20051;-67
2021/06/12 09:31:52;;;;;;;14.27;8.93;;;20.90;99.90;;;;;;3596603;39;20028;-67
2021/06/12 09:34:23;;;;;;;13.00;7.10;;;21.10;99.90;;;;;;3592301;39;20663;-67
2021/06/12 09:36:50;;;;;;;11.80;7.85;;;21.20;99.90;;;;;;3592228;39;20297;-67
2021/06/12 09:39:19;;;;;;;10.20;6.88;;;21.30;99.90;;;;;;3596292;39;20016;-68
2021/06/12 09:41:47;;;;;;;11.40;7.15;;;21.30;99.90;;;;;;3596268;39;20027;-67
2021/06/12 09:44:33;;;;;;;8.43;6.10;;;21.20;99.90;;;;;;3594327;39;20028;-67
2021/06/12 09:47:00;;;;;;;9.70;5.93;;;;;;;;;;3596441;39;20111;-67
2021/06/12 09:49:30;;;;;;;11.15;5.97;;;;;;;;;;3592102;39;20186;-67
2021/06/12 09:52:00;;;;;;;8.73;4.93;;;;;;;;;;3605730;39;20698;-68
2021/06/12 09:54:42;;;;;;;10.73;5.43;;;21.40;99.90;;;;;;3595684;39;20109;-67
2021/06/12 09:57:10;;;;;;;10.00;5.47;;;21.40;99.90;;;;;;3591987;39;20040;-68
2021/06/12 09:59:44;;;;;;;6.25;4.03;;;21.50;99.90;;;;;;3593988;39;20046;-68
2021/06/12 10:02:11;;;;;;;11.95;5.22;;;21.60;99.90;;;;;;3593900;39;20515;-69
2021/06/12 10:04:55;;;;;;;6.60;5.20;;;21.60;99.90;;;;;;3593415;39;20578;-69
2021/06/12 10:07:23;;;;;;;9.77;6.68;;;21.50;99.90;;;;;;3596882;39;20040;-69
2021/06/12 10:09:50;;;;;;;8.13;4.80;;;21.50;99.90;;;;;;3594524;39;20044;-69
2021/06/12 10:12:17;;;;;;;7.03;4.78;;;;;;;;;;3595173;39;20429;-68
2021/06/12 10:14:44;;;;;;;10.10;4.70;;;22.10;99.90;;;;;;3594921;39;20032;-67
2021/06/12 10:17:12;;;;;;;11.25;5.07;;;22.30;99.90;;;;;;3594716;39;20038;-67
2021/06/12 10:19:42;;;;;;;9.52;4.45;;;22.60;99.90;;;;;;3594862;39;20104;-68
2021/06/12 10:22:10;;;;;;;7.93;4.45;;;22.90;99.90;;;;;;3592599;39;20047;-67
2021/06/12 10:24:37;;;;;;;7.22;4.25;;;23.10;99.90;;;;;;3592391;39;20306;-67
2021/06/12 10:27:03;;;;;;;5.55;4.15;;;;;;;;;;3593966;39;20026;-67
2021/06/12 10:29:30;;;;;;;7.00;3.80;;;23.50;99.90;;;;;;3591999;39;20032;-67
2021/06/12 10:31:58;;;;;;;6.25;3.50;;;24.10;99.90;;;;;;3594133;39;20032;-67
2021/06/12 10:34:28;;;;;;;4.95;3.72;;;24.00;99.90;;;;;;3595939;39;20190;-67
2021/06/12 10:37:03;;;;;;;6.63;3.72;;;25.00;99.70;;;;;;3592607;39;20560;-68
2021/06/12 10:39:30;;;;;;;;;;;25.00;98.70;;;;;;3597240;39;20413;-67
2021/06/12 10:42:19;;;;;;;7.15;3.63;;;25.90;96.70;;;;;;3594791;39;20040;-67
2021/06/12 10:44:55;;;;;;;13.40;3.20;;;26.00;97.20;;;;;;3588618;39;20040;-67
2021/06/12 10:47:35;;;;;;;;;;;26.30;96.10;;;;;;3594304;39;20042;-67
2021/06/12 10:50:24;;;;;;;6.25;3.35;;;26.30;96.00;;;;;;3594068;39;19944;-67
2021/06/12 10:52:51;;;;;;;5.55;3.47;;;26.00;98.70;;;;;;3591101;39;20042;-67
2021/06/12 10:55:39;;;;;;;7.63;3.13;;;26.10;94.50;;;;;;3596067;39;20021;-67
2021/06/12 10:58:30;;;;;;;7.88;2.70;;;26.00;94.30;;;;;;3588673;39;20036;-67
2021/06/12 11:01:17;;;;;;;7.28;2.78;;;25.90;94.60;;;;;;3594937;39;20452;-67
2021/06/12 11:09:20;;;;;;;9.52;3.10;;;26.10;96.60;;;;;;3598651;39;20180;-67
2021/06/12 11:11:50;;;;;;;3.63;2.50;;;26.30;96.20;;;;;;3596076;39;20090;-67
2021/06/12 11:14:22;;;;;;;10.80;2.83;;;26.50;93.00;;;;;;3591856;39;20035;-68
2021/06/12 11:17:09;;;;;;;9.68;2.50;;;26.50;93.60;;;;;;3591946;39;20036;-67
2021/06/12 11:19:35;;;;;;;7.55;3.38;;;;;;;;;;3592928;39;20042;-67
2021/06/12 11:22:32;;;;;;;6.07;2.45;;;26.40;92.80;;;;;;3592077;39;20036;-67
2021/06/12 11:25:23;;;;;;;6.90;2.67;;;26.00;93.00;;;;;;3593669;39;20579;-67
2021/06/12 11:28:13;;;;;;;8.60;2.45;;;25.30;92.90;;;;;;3592679;39;20530;-66
2021/06/12 11:30:40;;;;;;;6.35;2.78;;;;;;;;;;3590357;39;20717;-67
2021/06/12 11:33:07;;;;;;;3.38;2.75;;;;;;;;;;3594291;39;20740;-67
2021/06/12 11:35:43;;;;;;;8.40;2.67;;;24.30;94.90;;;;;;3593856;39;20504;-67
2021/06/12 11:38:28;;;;;;;;;;;24.30;95.10;;;;;;3585645;39;20052;-67
2021/06/12 11:41:05;;;;;;;3.60;2.90;;;23.70;96.30;;;;;;3595648;39;19951;-66
2021/06/12 11:43:45;;;;;;;9.70;2.92;;;23.60;95.90;;;;;;3591499;39;20283;-68
2021/06/12 11:46:19;;;;;;;8.88;3.55;;;23.70;95.80;;;;;;3597483;39;20055;-67
2021/06/12 11:48:50;;;;;;;3.55;2.40;;;23.80;96.00;;;;;;3595028;39;20041;-67
2021/06/12 11:51:25;;;;;;;7.18;2.63;;;23.80;96.30;;;;;;3586209;39;20413;-67
2021/06/12 11:54:10;;;;;;;;;;;23.80;96.50;;;;;;3590813;39;20024;-67
2021/06/12 11:56:39;;;;;;;10.93;3.03;;;23.40;97.20;;;;;;3595274;39;20612;-67
2021/06/12 11:59:06;;;;;;;4.57;2.90;;;23.20;95.50;;;;;;3593042;39;20106;-67
2021/06/12 12:01:40;;;;;;;4.38;2.53;;;23.20;97.90;;;;;;3595263;39;20349;-67
2021/06/12 12:04:07;;;;;;;7.90;2.80;;;23.00;98.00;;;;;;3601371;39;20035;-67
2021/06/12 12:06:33;;;;;;;6.07;2.85;;;23.20;97.80;;;;;;3595041;39;20028;-66
2021/06/12 12:08:58;;;;;;;11.05;2.70;;;22.80;98.80;;;;;;3593726;39;20028;-66
2021/06/12 12:11:24;;;;;;;8.23;2.50;;;22.80;96.40;;;;;;3595260;39;20020;-66
2021/06/12 12:13:59;;;;;;;6.05;2.90;;;22.70;96.80;;;;;;3594957;39;20080;-67
2021/06/12 12:16:25;;;;;;;;;;;22.70;96.50;;;;;;3593123;39;20384;-66
2021/06/12 12:18:54;;;;;;;16.85;3.30;;;22.50;96.70;;;;;;3597230;39;19931;-66
2021/06/12 12:21:35;;;;;;;5.60;2.90;;;22.80;98.90;;;;;;3592700;39;20036;-67
2021/06/12 12:24:02;;;;;;;5.75;2.97;;;;;;;;;;3593265;39;20023;-66
2021/06/12 12:26:28;;;;;;;8.55;2.97;;;22.50;99.10;;;;;;3594720;39;20028;-66
2021/06/12 12:29:11;;;;;;;6.88;3.10;;;21.80;99.90;;;;;;3596351;39;20043;-66
2021/06/12 12:31:47;;;;;;;7.80;3.17;;;20.40;99.90;;;;;;3596027;39;20024;-66
2021/06/12 12:34:15;;;;;;;5.03;3.05;;;19.50;99.90;;;;;;3594151;39;20036;-66
2021/06/12 12:36:45;;;;;;;4.55;2.90;;;20.10;99.90;;;;;;3596456;39;20501;-67
2021/06/12 12:39:11;;;;;;;8.20;3.20;;;19.70;99.90;;;;;;3595807;39;20051;-66
2021/06/12 12:41:37;;;;;;;4.15;2.67;;;19.10;99.90;;;;;;3595693;39;20023;-67
2021/06/12 12:44:13;;;;;;;4.53;2.90;;;19.50;99.90;;;;;;3597842;39;20040;-67
2021/06/12 12:46:47;;;;;;;4.88;3.40;;;18.60;99.90;;;;;;3592462;39;20043;-66
2021/06/12 12:49:23;;;;;;;8.18;3.85;;;18.50;99.90;;;;;;3595295;39;20654;-66
2021/06/12 12:52:00;;;;;;;6.10;4.32;;;18.30;99.90;;;;;;3598287;39;20035;-67
2021/06/12 12:54:35;;;;;;;10.00;4.95;;;18.10;99.90;;;;;;3587798;39;20594;-67
2021/06/12 12:57:09;;;;;;;11.75;5.95;;;17.80;99.90;;;;;;3595481;39;20078;-67
2021/06/12 12:59:45;;;;;;;9.82;5.82;;;17.70;99.90;;;;;;3594838;39;20032;-66